OEMA

Prince Mohammad Bin Abdulaziz Airport

Medina, Saudi Arabia
TAF OEMA 201700Z 2018/2124 26006G16KT 7000 FEW045 BECMG 2106/2108 24006G16KT
Issued Valid From Valid To
Apr-20 @ 17:00 UTC
(an hour ago)
Apr-20 @ 18:00 UTC
(27 minutes ago)
Apr-22 @ 00:00 UTC
(-1 days ago)
Apr-20 @ 18:00 to Apr-21 @ 06:00
TAF OEMA 201700Z 2018/2124 26006G16KT 7000 FEW045
Wind Visibility Clouds
260° at 6 knots
 Gusting to 16 knots
7,001 meters
  • Few at 4,500' AGL
Becoming Apr-21 @ 06:00 to Apr-22 @ 00:00
BECMG 2106/2108 24006G16KT
Wind Visibility Clouds
240° at 6 knots
 Gusting to 16 knots
7,001 meters
  • Few at 4,500' AGL
TAF OEMA 201700Z 2018/2124 26006G16KT 7000 FEW045 BECMG 2106/2108 24006G16KT
Issued Apr-20 @ 17:00 UTC
(an hour ago)
Valid From Apr-20 @ 18:00 UTC
(27 minutes ago)
Valid To Apr-22 @ 00:00 UTC
(-1 days ago)
Apr-20 @ 18:00 - Apr-21 @ 06:00
Wind Visibility
260° at 6 knots
 Gusting to 16 knots
7,001 meters
Clouds
  • Few at 4,500' AGL
Becoming Apr-21 @ 06:00 - Apr-22 @ 00:00
Wind Visibility
240° at 6 knots
 Gusting to 16 knots
7,001 meters
Clouds
  • Few at 4,500' AGL